Climatologie pour Saint-Brevin les Pins
Jour • Résumé pour décembre 5, 2017 Système :  Métrique    Anglais   Mixte
« - 1 jour
+ 1 jour »
Jour Semaine Mois Année Personnalisé
  Maximum : Minimum : Moyenne :
Température sous abri : 10.2 °C 5.4 °C 7.7 °C
Point de rosée : 7.6 °C 5.0 °C 6.6 °C
Humidité : 98 % 80 % 93 %
Vitesse du vent : 8.0 km/h 0.0 km/h 0.5 km/h
Rafale : 12.9 km/h - -
Direction :- - SSE
Pression : 1038.8 hPa 1036.8 hPa -
Précipitations : 0.0 mm    
Historical Graphs
 
 
Tableau de données pour décembre 5, 2017
Heure Tempé Pt rosée Pression Vent Vitesse Rafale Humidité Taux pluie (/hr) Soleil
00:05 5.4 °C 5.0 °C 1038.5 hPa Calm     97 % 0.0 mm 0 W/m2
00:10 5.5 °C 5.1 °C 1038.5 hPa Calm     97 % 0.0 mm 0 W/m2
00:15 5.5 °C 5.1 °C 1038.5 hPa Calm     97 % 0.0 mm 0 W/m2
00:20 5.6 °C 5.2 °C 1038.1 hPa Calm     97 % 0.0 mm 0 W/m2
00:25 5.6 °C 5.1 °C 1038.5 hPa Calm     97 % 0.0 mm 0 W/m2
00:30 5.6 °C 5.2 °C 1038.1 hPa Calm   3.2 km/h 97 % 0.0 mm 0 W/m2
00:35 5.7 °C 5.2 °C 1038.1 hPa Calm   3.2 km/h 97 % 0.0 mm 0 W/m2
00:40 5.7 °C 5.2 °C 1038.1 hPa Calm     97 % 0.0 mm 0 W/m2
00:45 5.7 °C 5.2 °C 1038.1 hPa Calm     97 % 0.0 mm 0 W/m2
00:50 5.9 °C 5.4 °C 1038.1 hPa Calm     97 % 0.0 mm 0 W/m2
00:55 5.9 °C 5.4 °C 1038.1 hPa Calm     97 % 0.0 mm 0 W/m2
01:00 6.0 °C 5.6 °C 1038.1 hPa Calm     97 % 0.0 mm 0 W/m2
01:05 5.9 °C 5.4 °C 1038.1 hPa Calm     97 % 0.0 mm 0 W/m2
01:10 5.8 °C 5.4 °C 1038.1 hPa Calm     97 % 0.0 mm 0 W/m2
01:15 5.8 °C 5.4 °C 1038.1 hPa Calm     97 % 0.0 mm 0 W/m2
01:20 6.1 °C 5.6 °C 1038.1 hPa Calm     97 % 0.0 mm 0 W/m2
01:25 6.1 °C 5.7 °C 1038.1 hPa Calm     97 % 0.0 mm 0 W/m2
01:30 6.2 °C 5.7 °C 1038.1 hPa Calm     97 % 0.0 mm 0 W/m2
01:35 6.1 °C 5.6 °C 1038.1 hPa Calm     97 % 0.0 mm 0 W/m2
01:40 6.2 °C 5.9 °C 1038.1 hPa Calm     98 % 0.0 mm 0 W/m2
01:45 6.2 °C 5.7 °C 1037.8 hPa Calm     97 % 0.0 mm 0 W/m2
01:50 6.3 °C 6.0 °C 1037.8 hPa Calm   1.6 km/h 98 % 0.0 mm 0 W/m2
01:55 6.4 °C 6.0 °C 1037.8 hPa Calm   3.2 km/h 97 % 0.0 mm 0 W/m2
02:00 6.4 °C 6.0 °C 1037.8 hPa Calm   3.2 km/h 97 % 0.0 mm 0 W/m2
02:05 6.4 °C 6.0 °C 1037.8 hPa Calm     97 % 0.0 mm 0 W/m2
02:15 6.4 °C 6.0 °C 1037.8 hPa Calm   4.8 km/h 97 % 0.0 mm 0 W/m2
02:20 6.5 °C 6.1 °C 1037.8 hPa Calm   3.2 km/h 97 % 0.0 mm 0 W/m2
02:25 6.5 °C 6.1 °C 1037.8 hPa Calm   3.2 km/h 97 % 0.0 mm 0 W/m2
02:30 6.6 °C 6.3 °C 1037.8 hPa Calm     98 % 0.0 mm 0 W/m2
02:35 6.7 °C 6.4 °C 1037.8 hPa Calm     98 % 0.0 mm 0 W/m2
02:40 6.6 °C 6.2 °C 1037.8 hPa Calm     97 % 0.0 mm 0 W/m2
02:45 6.6 °C 6.2 °C 1037.8 hPa Calm   3.2 km/h 97 % 0.0 mm 0 W/m2
02:50 6.7 °C 6.4 °C 1037.8 hPa Calm   3.2 km/h 98 % 0.0 mm 0 W/m2
02:55 6.7 °C 6.4 °C 1037.8 hPa North 3.2 km/h 3.2 km/h 98 % 0.0 mm 0 W/m2
03:00 6.8 °C 6.3 °C 1037.8 hPa Calm   3.2 km/h 97 % 0.0 mm 0 W/m2
03:05 6.7 °C 6.3 °C 1037.8 hPa Calm   3.2 km/h 97 % 0.0 mm 0 W/m2
03:10 6.7 °C 6.3 °C 1037.8 hPa Calm   1.6 km/h 97 % 0.0 mm 0 W/m2
03:15 6.8 °C 6.3 °C 1037.8 hPa Calm   1.6 km/h 97 % 0.0 mm 0 W/m2
03:20 6.8 °C 6.3 °C 1037.8 hPa Calm     97 % 0.0 mm 0 W/m2
03:25 6.7 °C 6.3 °C 1037.8 hPa Calm     97 % 0.0 mm 0 W/m2
03:30 6.8 °C 6.3 °C 1037.8 hPa Calm   3.2 km/h 97 % 0.0 mm 0 W/m2
03:35 6.8 °C 6.3 °C 1037.8 hPa Calm   3.2 km/h 97 % 0.0 mm 0 W/m2
03:40 6.8 °C 6.4 °C 1037.8 hPa Calm     97 % 0.0 mm 0 W/m2
03:45 6.8 °C 6.3 °C 1038.1 hPa Calm     97 % 0.0 mm 0 W/m2
03:50 6.8 °C 6.3 °C 1038.1 hPa Calm     97 % 0.0 mm 0 W/m2
03:55 6.7 °C 6.3 °C 1038.1 hPa North 3.2 km/h 3.2 km/h 97 % 0.0 mm 0 W/m2
04:05 6.7 °C 6.3 °C 1037.8 hPa Calm   3.2 km/h 97 % 0.0 mm 0 W/m2
04:10 6.7 °C 6.2 °C 1037.8 hPa Calm   3.2 km/h 97 % 0.0 mm 0 W/m2
04:15 6.7 °C 6.2 °C 1037.8 hPa Calm     97 % 0.0 mm 0 W/m2
04:20 6.7 °C 6.3 °C 1037.8 hPa Calm     97 % 0.0 mm 0 W/m2
04:25 6.7 °C 6.3 °C 1037.8 hPa North 4.8 km/h 4.8 km/h 97 % 0.0 mm 0 W/m2
04:30 6.8 °C 6.3 °C 1037.8 hPa Calm   4.8 km/h 97 % 0.0 mm 0 W/m2
04:35 6.8 °C 6.3 °C 1037.8 hPa Calm   4.8 km/h 97 % 0.0 mm 0 W/m2
04:40 6.7 °C 6.3 °C 1037.8 hPa Calm     97 % 0.0 mm 0 W/m2
04:45 6.7 °C 6.2 °C 1037.8 hPa Calm     97 % 0.0 mm 0 W/m2
04:50 6.7 °C 6.2 °C 1037.8 hPa Calm     97 % 0.0 mm 0 W/m2
04:55 6.7 °C 6.2 °C 1037.8 hPa Calm     97 % 0.0 mm 0 W/m2
05:00 6.7 °C 6.2 °C 1037.8 hPa Calm     97 % 0.0 mm 0 W/m2
05:05 6.6 °C 6.2 °C 1037.8 hPa Calm     97 % 0.0 mm 0 W/m2
05:10 6.6 °C 6.1 °C 1037.8 hPa Calm     97 % 0.0 mm 0 W/m2
05:15 6.7 °C 6.2 °C 1037.8 hPa Calm     97 % 0.0 mm 0 W/m2
05:20 6.7 °C 6.3 °C 1037.8 hPa Calm     97 % 0.0 mm 0 W/m2
05:25 6.7 °C 6.2 °C 1037.8 hPa Calm     97 % 0.0 mm 0 W/m2
05:30 6.7 °C 6.2 °C 1037.8 hPa Calm     97 % 0.0 mm 0 W/m2
05:35 6.7 °C 6.2 °C 1037.8 hPa Calm     97 % 0.0 mm 0 W/m2
05:40 6.6 °C 6.1 °C 1037.8 hPa Calm     97 % 0.0 mm 0 W/m2
05:45 6.6 °C 6.1 °C 1037.8 hPa Calm     97 % 0.0 mm 0 W/m2
05:50 6.6 °C 6.1 °C 1037.8 hPa Calm     97 % 0.0 mm 0 W/m2
05:55 6.7 °C 6.3 °C 1037.8 hPa Calm     97 % 0.0 mm 0 W/m2
06:00 6.8 °C 6.3 °C 1037.8 hPa Calm   1.6 km/h 97 % 0.0 mm 0 W/m2
06:05 6.8 °C 6.3 °C 1037.8 hPa Calm   1.6 km/h 97 % 0.0 mm 0 W/m2
06:10 6.7 °C 6.3 °C 1037.8 hPa Calm     97 % 0.0 mm 0 W/m2
06:20 6.7 °C 6.2 °C 1037.8 hPa Calm     97 % 0.0 mm 0 W/m2
06:25 6.7 °C 6.3 °C 1037.8 hPa Calm     97 % 0.0 mm 0 W/m2
06:30 6.7 °C 6.3 °C 1037.8 hPa Calm     97 % 0.0 mm 0 W/m2
06:35 6.7 °C 6.3 °C 1037.8 hPa Calm     97 % 0.0 mm 0 W/m2
06:40 6.7 °C 6.2 °C 1037.8 hPa Calm     97 % 0.0 mm 0 W/m2
06:45 6.6 °C 6.2 °C 1037.8 hPa Calm     97 % 0.0 mm 0 W/m2
06:50 6.7 °C 6.2 °C 1037.8 hPa Calm   1.6 km/h 97 % 0.0 mm 0 W/m2
06:55 6.8 °C 6.3 °C 1037.8 hPa Calm   1.6 km/h 97 % 0.0 mm 0 W/m2
07:00 6.8 °C 6.3 °C 1037.8 hPa Calm   1.6 km/h 97 % 0.0 mm 0 W/m2
07:05 6.7 °C 6.3 °C 1038.1 hPa Calm     97 % 0.0 mm 0 W/m2
07:10 6.7 °C 6.3 °C 1038.1 hPa Calm     97 % 0.0 mm 0 W/m2
07:15 6.8 °C 6.3 °C 1037.8 hPa North 3.2 km/h 3.2 km/h 97 % 0.0 mm 0 W/m2
07:20 6.8 °C 6.4 °C 1037.8 hPa NE 1.6 km/h 4.8 km/h 97 % 0.0 mm 0 W/m2
07:25 6.9 °C 6.6 °C 1038.1 hPa Calm   4.8 km/h 98 % 0.0 mm 0 W/m2
07:30 6.9 °C 6.4 °C 1037.8 hPa Calm   3.2 km/h 97 % 0.0 mm 0 W/m2
07:35 6.8 °C 6.4 °C 1037.8 hPa Calm   1.6 km/h 97 % 0.0 mm 0 W/m2
07:40 6.8 °C 6.3 °C 1038.1 hPa Calm     97 % 0.0 mm 0 W/m2
07:45 6.8 °C 6.4 °C 1038.1 hPa Calm     97 % 0.0 mm 0 W/m2
07:50 6.8 °C 6.4 °C 1037.8 hPa Calm   3.2 km/h 97 % 0.0 mm 0 W/m2
07:55 6.8 °C 6.3 °C 1038.1 hPa Calm   3.2 km/h 97 % 0.0 mm 0 W/m2
08:00 6.7 °C 6.3 °C 1038.1 hPa Calm     97 % 0.0 mm 0 W/m2
08:05 6.8 °C 6.4 °C 1038.1 hPa NE 3.2 km/h 4.8 km/h 97 % 0.0 mm 0 W/m2
08:10 6.8 °C 6.4 °C 1038.1 hPa Calm   4.8 km/h 97 % 0.0 mm 0 W/m2
08:15 6.8 °C 6.3 °C 1038.1 hPa Calm   3.2 km/h 97 % 0.0 mm 0 W/m2
08:20 6.8 °C 6.3 °C 1038.1 hPa Calm     97 % 0.0 mm 0 W/m2
08:25 6.9 °C 6.4 °C 1038.5 hPa Calm     97 % 0.0 mm 0 W/m2
08:30 6.9 °C 6.4 °C 1038.5 hPa Calm     97 % 0.0 mm 0 W/m2
08:35 6.8 °C 6.4 °C 1038.5 hPa Calm     97 % 0.0 mm 0 W/m2
08:40 6.8 °C 6.3 °C 1038.5 hPa Calm     97 % 0.0 mm 0 W/m2
08:45 6.8 °C 6.4 °C 1038.5 hPa Calm     97 % 0.0 mm 0 W/m2
08:50 6.9 °C 6.5 °C 1038.5 hPa Calm   3.2 km/h 97 % 0.0 mm 0 W/m2
08:55 6.9 °C 6.5 °C 1038.5 hPa Calm   3.2 km/h 97 % 0.0 mm 0 W/m2
09:00 6.9 °C 6.5 °C 1038.5 hPa Calm   3.2 km/h 97 % 0.0 mm 5 W/m2
09:05 6.9 °C 6.4 °C 1038.5 hPa Calm     97 % 0.0 mm 5 W/m2
09:10 7.0 °C 6.6 °C 1038.5 hPa Calm   3.2 km/h 97 % 0.0 mm 7 W/m2
09:15 7.0 °C 6.6 °C 1038.5 hPa Calm   3.2 km/h 97 % 0.0 mm 9 W/m2
09:20 7.0 °C 6.6 °C 1038.5 hPa Calm     97 % 0.0 mm 11 W/m2
09:25 7.1 °C 6.7 °C 1038.5 hPa Calm   3.2 km/h 97 % 0.0 mm 12 W/m2
09:30 7.2 °C 6.7 °C 1038.5 hPa Calm   3.2 km/h 97 % 0.0 mm 14 W/m2
09:35 7.2 °C 6.8 °C 1038.5 hPa Calm     97 % 0.0 mm 16 W/m2
09:40 7.3 °C 6.8 °C 1038.5 hPa Calm   3.2 km/h 97 % 0.0 mm 18 W/m2
09:45 7.3 °C 6.8 °C 1038.5 hPa Calm   3.2 km/h 97 % 0.0 mm 19 W/m2
09:50 7.3 °C 6.9 °C 1038.5 hPa Calm   3.2 km/h 97 % 0.0 mm 23 W/m2
09:55 7.4 °C 6.9 °C 1038.5 hPa Calm   3.2 km/h 97 % 0.0 mm 25 W/m2
10:00 7.4 °C 7.0 °C 1038.5 hPa Calm   3.2 km/h 97 % 0.0 mm 28 W/m2
10:05 7.4 °C 7.0 °C 1038.5 hPa Calm   3.2 km/h 97 % 0.0 mm 32 W/m2
10:10 7.5 °C 6.9 °C 1038.5 hPa NE 1.6 km/h 4.8 km/h 96 % 0.0 mm 33 W/m2
10:15 7.5 °C 6.9 °C 1038.5 hPa Calm   6.4 km/h 96 % 0.0 mm 37 W/m2
10:20 7.6 °C 7.0 °C 1038.5 hPa ENE 1.6 km/h 6.4 km/h 96 % 0.0 mm 39 W/m2
10:25 7.6 °C 7.0 °C 1038.5 hPa Calm   3.2 km/h 96 % 0.0 mm 40 W/m2
10:30 7.7 °C 7.1 °C 1038.5 hPa Calm   1.6 km/h 96 % 0.0 mm 42 W/m2
10:35 7.7 °C 7.1 °C 1038.5 hPa Calm     96 % 0.0 mm 46 W/m2
10:40 7.8 °C 7.2 °C 1038.5 hPa Calm     96 % 0.0 mm 47 W/m2
10:45 7.8 °C 7.2 °C 1038.5 hPa Calm   4.8 km/h 96 % 0.0 mm 53 W/m2
10:50 7.8 °C 7.1 °C 1038.8 hPa Calm   4.8 km/h 95 % 0.0 mm 54 W/m2
10:55 7.9 °C 7.1 °C 1038.8 hPa Calm   3.2 km/h 95 % 0.0 mm 58 W/m2
11:00 7.9 °C 7.2 °C 1038.8 hPa Calm   3.2 km/h 95 % 0.0 mm 60 W/m2
11:05 7.9 °C 7.2 °C 1038.8 hPa ENE 3.2 km/h 4.8 km/h 95 % 0.0 mm 63 W/m2
11:10 8.0 °C 7.2 °C 1038.8 hPa ENE 4.8 km/h 4.8 km/h 95 % 0.0 mm 63 W/m2
11:15 8.1 °C 7.1 °C 1038.8 hPa ENE 1.6 km/h 6.4 km/h 94 % 0.0 mm 65 W/m2
11:20 8.1 °C 7.2 °C 1038.8 hPa Calm   6.4 km/h 94 % 0.0 mm 67 W/m2
11:25 8.2 °C 7.3 °C 1038.8 hPa ENE 3.2 km/h 4.8 km/h 94 % 0.0 mm 67 W/m2
11:30 8.2 °C 7.2 °C 1038.8 hPa ENE 1.6 km/h 4.8 km/h 93 % 0.0 mm 69 W/m2
11:35 8.3 °C 7.3 °C 1038.8 hPa ENE 4.8 km/h 6.4 km/h 93 % 0.0 mm 67 W/m2
11:40 8.4 °C 7.3 °C 1038.8 hPa ENE 3.2 km/h 6.4 km/h 93 % 0.0 mm 70 W/m2
11:45 8.4 °C 7.4 °C 1038.8 hPa Calm   4.8 km/h 93 % 0.0 mm 74 W/m2
11:50 8.5 °C 7.4 °C 1038.8 hPa Calm   4.8 km/h 93 % 0.0 mm 79 W/m2
11:55 8.4 °C 7.2 °C 1038.8 hPa ENE 1.6 km/h 3.2 km/h 92 % 0.0 mm 81 W/m2
12:00 8.4 °C 7.1 °C 1038.8 hPa Calm   6.4 km/h 91 % 0.0 mm 84 W/m2
12:05 8.5 °C 7.1 °C 1038.5 hPa Calm   6.4 km/h 91 % 0.0 mm 86 W/m2
12:10 8.6 °C 7.0 °C 1038.5 hPa Calm   6.4 km/h 90 % 0.0 mm 88 W/m2
12:15 8.6 °C 7.1 °C 1038.5 hPa Calm   6.4 km/h 90 % 0.0 mm 88 W/m2
12:20 8.7 °C 7.0 °C 1038.5 hPa Calm   4.8 km/h 89 % 0.0 mm 88 W/m2
12:25 8.8 °C 7.1 °C 1038.5 hPa ENE 1.6 km/h 4.8 km/h 89 % 0.0 mm 93 W/m2
12:30 8.8 °C 7.1 °C 1038.5 hPa SE 1.6 km/h 8.0 km/h 89 % 0.0 mm 97 W/m2
12:35 8.9 °C 7.2 °C 1038.5 hPa SE 1.6 km/h 8.0 km/h 89 % 0.0 mm 98 W/m2
12:40 8.9 °C 7.2 °C 1038.1 hPa Calm   6.4 km/h 89 % 0.0 mm 98 W/m2
12:45 8.9 °C 7.2 °C 1038.1 hPa Calm   6.4 km/h 89 % 0.0 mm 98 W/m2
12:50 9.0 °C 7.3 °C 1038.1 hPa Calm   3.2 km/h 89 % 0.0 mm 97 W/m2
12:55 9.0 °C 7.1 °C 1038.1 hPa SE 4.8 km/h 4.8 km/h 88 % 0.0 mm 95 W/m2
13:05 9.1 °C 7.4 °C 1038.1 hPa Calm   4.8 km/h 89 % 0.0 mm 98 W/m2
13:10 9.2 °C 7.4 °C 1038.1 hPa Calm   6.4 km/h 89 % 0.0 mm 105 W/m2
13:15 9.2 °C 7.5 °C 1038.1 hPa SE 3.2 km/h 6.4 km/h 89 % 0.0 mm 107 W/m2
13:20 9.3 °C 7.6 °C 1037.8 hPa SE 3.2 km/h 6.4 km/h 89 % 0.0 mm 111 W/m2
13:25 9.3 °C 7.4 °C 1037.8 hPa SE 3.2 km/h 9.7 km/h 88 % 0.0 mm 118 W/m2
13:30 9.4 °C 7.6 °C 1037.8 hPa SE 1.6 km/h 9.7 km/h 88 % 0.0 mm 121 W/m2
13:35 9.6 °C 7.6 °C 1037.8 hPa East 8.0 km/h 9.7 km/h 87 % 0.0 mm 130 W/m2
13:40 9.7 °C 7.4 °C 1037.8 hPa SE 8.0 km/h 12.9 km/h 86 % 0.0 mm 137 W/m2
13:45 9.7 °C 7.1 °C 1037.8 hPa SE 6.4 km/h 12.9 km/h 84 % 0.0 mm 144 W/m2
13:50 9.8 °C 7.0 °C 1037.8 hPa SSE 3.2 km/h 12.9 km/h 83 % 0.0 mm 149 W/m2
13:55 9.8 °C 7.1 °C 1037.8 hPa SE 3.2 km/h 9.7 km/h 83 % 0.0 mm 149 W/m2
14:00 9.9 °C 7.0 °C 1037.8 hPa Calm   9.7 km/h 82 % 0.0 mm 141 W/m2
14:05 10.0 °C 6.9 °C 1037.8 hPa Calm   8.0 km/h 81 % 0.0 mm 127 W/m2
14:10 9.9 °C 6.8 °C 1037.8 hPa SW 1.6 km/h 4.8 km/h 81 % 0.0 mm 123 W/m2
14:15 10.1 °C 7.3 °C 1037.8 hPa Calm   6.4 km/h 83 % 0.0 mm 121 W/m2
14:20 10.1 °C 7.1 °C 1037.8 hPa Calm   6.4 km/h 82 % 0.0 mm 116 W/m2
14:25 10.1 °C 6.8 °C 1037.8 hPa NW 1.6 km/h 6.4 km/h 80 % 0.0 mm 111 W/m2
14:30 10.1 °C 7.1 °C 1037.5 hPa Calm   6.4 km/h 82 % 0.0 mm 105 W/m2
14:35 10.2 °C 7.6 °C 1037.5 hPa Calm   6.4 km/h 84 % 0.0 mm 105 W/m2
14:40 10.1 °C 7.4 °C 1037.5 hPa Calm   4.8 km/h 83 % 0.0 mm 102 W/m2
14:45 10.1 °C 7.4 °C 1037.5 hPa Calm   4.8 km/h 83 % 0.0 mm 93 W/m2
14:50 10.2 °C 7.6 °C 1037.5 hPa NW 1.6 km/h 6.4 km/h 84 % 0.0 mm 93 W/m2
14:55 10.0 °C 7.4 °C 1037.5 hPa Calm   6.4 km/h 84 % 0.0 mm 93 W/m2
15:00 9.8 °C 7.1 °C 1037.5 hPa Calm   4.8 km/h 83 % 0.0 mm 86 W/m2
15:05 9.8 °C 7.1 °C 1037.5 hPa Calm   4.8 km/h 83 % 0.0 mm 84 W/m2
15:10 9.9 °C 7.4 °C 1037.5 hPa NW 3.2 km/h 6.4 km/h 84 % 0.0 mm 77 W/m2
15:15 9.9 °C 7.4 °C 1037.5 hPa NW 1.6 km/h 6.4 km/h 84 % 0.0 mm 74 W/m2
15:20 9.8 °C 7.3 °C 1037.5 hPa Calm   6.4 km/h 84 % 0.0 mm 70 W/m2
15:30 9.8 °C 7.2 °C 1037.1 hPa WSW 3.2 km/h 4.8 km/h 84 % 0.0 mm 63 W/m2
15:35 9.8 °C 7.4 °C 1037.1 hPa WNW 3.2 km/h 6.4 km/h 85 % 0.0 mm 60 W/m2
15:40 9.7 °C 7.1 °C 1037.1 hPa NW 3.2 km/h 6.4 km/h 84 % 0.0 mm 54 W/m2
15:45 9.7 °C 7.1 °C 1037.1 hPa Calm   6.4 km/h 84 % 0.0 mm 49 W/m2
15:50 9.7 °C 7.1 °C 1037.1 hPa Calm   4.8 km/h 84 % 0.0 mm 46 W/m2
15:55 9.7 °C 7.3 °C 1037.1 hPa Calm   6.4 km/h 85 % 0.0 mm 42 W/m2
16:00 9.6 °C 7.2 °C 1037.1 hPa NW 4.8 km/h 6.4 km/h 85 % 0.0 mm 39 W/m2
16:05 9.6 °C 7.2 °C 1037.1 hPa Calm   6.4 km/h 85 % 0.0 mm 35 W/m2
16:10 9.6 °C 7.2 °C 1037.5 hPa Calm   4.8 km/h 85 % 0.0 mm 32 W/m2
16:15 9.5 °C 7.3 °C 1037.5 hPa Calm   1.6 km/h 86 % 0.0 mm 28 W/m2
16:20 9.4 °C 7.2 °C 1037.5 hPa Calm   1.6 km/h 86 % 0.0 mm 26 W/m2
16:25 9.4 °C 7.2 °C 1037.5 hPa Calm     86 % 0.0 mm 23 W/m2
16:30 9.4 °C 7.2 °C 1037.5 hPa Calm     86 % 0.0 mm 19 W/m2
16:35 9.3 °C 7.4 °C 1037.5 hPa Calm     88 % 0.0 mm 16 W/m2
16:40 9.2 °C 7.3 °C 1037.5 hPa Calm     88 % 0.0 mm 14 W/m2
16:45 9.2 °C 7.3 °C 1037.5 hPa Calm     88 % 0.0 mm 12 W/m2
16:50 9.2 °C 7.2 °C 1037.5 hPa Calm     87 % 0.0 mm 11 W/m2
16:55 9.2 °C 7.2 °C 1037.1 hPa Calm   3.2 km/h 87 % 0.0 mm 9 W/m2
17:00 9.2 °C 7.1 °C 1037.5 hPa Calm   3.2 km/h 87 % 0.0 mm 7 W/m2
17:05 8.9 °C 7.1 °C 1037.5 hPa Calm     88 % 0.0 mm 5 W/m2
17:10 8.8 °C 7.2 °C 1037.5 hPa Calm     90 % 0.0 mm 0 W/m2
17:20 8.6 °C 7.1 °C 1037.5 hPa Calm     90 % 0.0 mm 0 W/m2
17:25 8.7 °C 7.2 °C 1037.1 hPa Calm     90 % 0.0 mm 0 W/m2
17:40 8.7 °C 7.0 °C 1037.1 hPa Calm     89 % 0.0 mm 0 W/m2
17:45 8.4 °C 6.8 °C 1037.1 hPa Calm     90 % 0.0 mm 0 W/m2
17:50 8.2 °C 6.8 °C 1037.1 hPa Calm     91 % 0.0 mm 0 W/m2
17:55 8.2 °C 6.8 °C 1037.5 hPa Calm     91 % 0.0 mm 0 W/m2
18:00 8.3 °C 6.9 °C 1037.5 hPa Calm     91 % 0.0 mm 0 W/m2
18:05 8.4 °C 6.8 °C 1037.5 hPa Calm   1.6 km/h 90 % 0.0 mm 0 W/m2
18:10 8.4 °C 6.8 °C 1037.5 hPa Calm   1.6 km/h 90 % 0.0 mm 0 W/m2
18:15 8.3 °C 6.7 °C 1037.5 hPa Calm     90 % 0.0 mm 0 W/m2
18:20 8.1 °C 6.7 °C 1037.5 hPa Calm   3.2 km/h 91 % 0.0 mm 0 W/m2
18:25 8.0 °C 6.8 °C 1037.5 hPa North 4.8 km/h 4.8 km/h 92 % 0.0 mm 0 W/m2
18:30 8.1 °C 6.8 °C 1037.5 hPa Calm   6.4 km/h 92 % 0.0 mm 0 W/m2
18:35 8.2 °C 6.9 °C 1037.1 hPa Calm   6.4 km/h 92 % 0.0 mm 0 W/m2
18:40 8.3 °C 6.9 °C 1037.1 hPa Calm   1.6 km/h 91 % 0.0 mm 0 W/m2
18:45 8.3 °C 6.9 °C 1037.1 hPa Calm   3.2 km/h 91 % 0.0 mm 0 W/m2
18:50 8.3 °C 6.9 °C 1037.1 hPa Calm   3.2 km/h 91 % 0.0 mm 0 W/m2
18:55 8.3 °C 6.9 °C 1037.1 hPa Calm   3.2 km/h 91 % 0.0 mm 0 W/m2
19:00 8.3 °C 6.9 °C 1037.1 hPa NNE 1.6 km/h 3.2 km/h 91 % 0.0 mm 0 W/m2
19:05 8.2 °C 6.8 °C 1037.1 hPa Calm   3.2 km/h 91 % 0.0 mm 0 W/m2
19:10 8.1 °C 6.7 °C 1037.1 hPa Calm   1.6 km/h 91 % 0.0 mm 0 W/m2
19:15 8.0 °C 6.8 °C 1037.1 hPa Calm     92 % 0.0 mm 0 W/m2
19:20 7.9 °C 6.7 °C 1037.1 hPa Calm     92 % 0.0 mm 0 W/m2
19:25 7.8 °C 6.6 °C 1037.1 hPa Calm     92 % 0.0 mm 0 W/m2
19:30 7.8 °C 6.7 °C 1037.1 hPa Calm     93 % 0.0 mm 0 W/m2
19:35 7.8 °C 6.8 °C 1037.1 hPa Calm     93 % 0.0 mm 0 W/m2
19:40 7.9 °C 6.7 °C 1037.1 hPa Calm   1.6 km/h 92 % 0.0 mm 0 W/m2
19:45 8.0 °C 6.8 °C 1037.1 hPa Calm   4.8 km/h 92 % 0.0 mm 0 W/m2
19:50 8.1 °C 6.7 °C 1037.1 hPa Calm   4.8 km/h 91 % 0.0 mm 0 W/m2
19:55 8.0 °C 6.8 °C 1037.1 hPa Calm   4.8 km/h 92 % 0.0 mm 0 W/m2
20:00 8.0 °C 6.8 °C 1037.1 hPa Calm   8.0 km/h 92 % 0.0 mm 0 W/m2
20:05 8.0 °C 6.6 °C 1037.1 hPa Calm   8.0 km/h 91 % 0.0 mm 0 W/m2
20:10 8.1 °C 6.7 °C 1037.1 hPa SE 1.6 km/h 6.4 km/h 91 % 0.0 mm 0 W/m2
20:15 8.0 °C 6.6 °C 1037.1 hPa Calm   4.8 km/h 91 % 0.0 mm 0 W/m2
20:20 8.0 °C 6.6 °C 1037.1 hPa Calm   4.8 km/h 91 % 0.0 mm 0 W/m2
20:25 8.0 °C 6.6 °C 1037.1 hPa Calm   4.8 km/h 91 % 0.0 mm 0 W/m2
20:30 7.9 °C 6.6 °C 1037.1 hPa Calm   4.8 km/h 91 % 0.0 mm 0 W/m2
20:35 7.9 °C 6.5 °C 1037.1 hPa Calm   4.8 km/h 91 % 0.0 mm 0 W/m2
20:40 7.9 °C 6.5 °C 1037.1 hPa Calm   3.2 km/h 91 % 0.0 mm 0 W/m2
20:45 7.9 °C 6.5 °C 1037.1 hPa Calm   3.2 km/h 91 % 0.0 mm 0 W/m2
20:50 7.9 °C 6.5 °C 1037.1 hPa Calm     91 % 0.0 mm 0 W/m2
20:55 7.8 °C 6.5 °C 1037.1 hPa Calm   1.6 km/h 91 % 0.0 mm 0 W/m2
21:00 7.7 °C 6.3 °C 1037.1 hPa Calm   1.6 km/h 91 % 0.0 mm 0 W/m2
21:05 7.7 °C 6.4 °C 1037.1 hPa Calm   3.2 km/h 92 % 0.0 mm 0 W/m2
21:10 7.7 °C 6.4 °C 1037.1 hPa Calm   3.2 km/h 92 % 0.0 mm 0 W/m2
21:15 7.6 °C 6.3 °C 1037.1 hPa Calm   1.6 km/h 92 % 0.0 mm 0 W/m2
21:20 7.5 °C 6.3 °C 1037.5 hPa Calm     92 % 0.0 mm 0 W/m2
21:25 7.6 °C 6.3 °C 1037.1 hPa Calm   3.2 km/h 92 % 0.0 mm 0 W/m2
21:30 7.5 °C 6.3 °C 1037.1 hPa Calm   3.2 km/h 92 % 0.0 mm 0 W/m2
21:35 7.5 °C 6.3 °C 1037.1 hPa Calm   1.6 km/h 92 % 0.0 mm 0 W/m2
21:40 7.4 °C 6.2 °C 1037.1 hPa Calm     92 % 0.0 mm 0 W/m2
21:45 7.4 °C 6.3 °C 1037.1 hPa SE 1.6 km/h 3.2 km/h 93 % 0.0 mm 0 W/m2
21:50 7.4 °C 6.4 °C 1037.1 hPa SE 1.6 km/h 3.2 km/h 93 % 0.0 mm 0 W/m2
21:55 7.6 °C 6.3 °C 1037.1 hPa SE 3.2 km/h 4.8 km/h 92 % 0.0 mm 0 W/m2
22:00 7.7 °C 6.4 °C 1037.1 hPa SSE 3.2 km/h 8.0 km/h 92 % 0.0 mm 0 W/m2
22:05 7.8 °C 6.4 °C 1037.1 hPa SSE 1.6 km/h 8.0 km/h 91 % 0.0 mm 0 W/m2
22:10 7.8 °C 6.4 °C 1037.1 hPa SSE 1.6 km/h 6.4 km/h 91 % 0.0 mm 0 W/m2
22:15 7.8 °C 6.4 °C 1037.1 hPa Calm   6.4 km/h 91 % 0.0 mm 0 W/m2
22:20 7.7 °C 6.3 °C 1037.1 hPa Calm   4.8 km/h 91 % 0.0 mm 0 W/m2
22:25 7.6 °C 6.2 °C 1037.1 hPa Calm   1.6 km/h 91 % 0.0 mm 0 W/m2
22:30 7.4 °C 6.2 °C 1037.1 hPa Calm   1.6 km/h 92 % 0.0 mm 0 W/m2
22:35 7.4 °C 6.2 °C 1037.1 hPa Calm     92 % 0.0 mm 0 W/m2
22:40 7.3 °C 6.1 °C 1036.8 hPa Calm     92 % 0.0 mm 0 W/m2
22:45 7.3 °C 6.2 °C 1036.8 hPa Calm   3.2 km/h 93 % 0.0 mm 0 W/m2
22:50 7.2 °C 6.2 °C 1036.8 hPa Calm   3.2 km/h 93 % 0.0 mm 0 W/m2
23:00 7.2 °C 6.1 °C 1036.8 hPa Calm     93 % 0.0 mm 0 W/m2
23:05 7.2 °C 6.2 °C 1036.8 hPa Calm     93 % 0.0 mm 0 W/m2
23:10 7.2 °C 6.1 °C 1037.1 hPa Calm     93 % 0.0 mm 0 W/m2
23:15 7.1 °C 6.1 °C 1036.8 hPa Calm     93 % 0.0 mm 0 W/m2
23:20 7.2 °C 6.1 °C 1036.8 hPa Calm     93 % 0.0 mm 0 W/m2
23:25 7.1 °C 6.0 °C 1036.8 hPa Calm     93 % 0.0 mm 0 W/m2
23:30 7.1 °C 6.2 °C 1036.8 hPa Calm     94 % 0.0 mm 0 W/m2
23:35 7.2 °C 6.3 °C 1036.8 hPa Calm     94 % 0.0 mm 0 W/m2
23:45 7.2 °C 6.2 °C 1036.8 hPa Calm     93 % 0.0 mm 0 W/m2
23:50 7.2 °C 6.2 °C 1036.8 hPa Calm     93 % 0.0 mm 0 W/m2
23:55 7.1 °C 6.1 °C 1036.8 hPa Calm     93 % 0.0 mm 0 W/m2
Avec l'autorisation de Weather Underground - 1.75 mb